Time;durP1;ratioP1;P1;durP2;ratioP2;P2;SDS_P1;SDS_P2;PMS_P1;PMS_P2;Temp;Humidity;BMP_temperature;BMP_pressure;BME280_temperature;BME280_humidity;BME280_pressure;Samples;Min_cycle;Max_cycle;Signal;HPM_P1;HPM_P2
2022/02/09 00:04:58;;;;;;;;;;;6.50;97.90;;;;;;5061985;28;20076;-66
2022/02/09 00:07:40;;;;;;;;;;;6.50;97.90;;;;;;5046222;28;19916;-66
2022/02/09 00:10:06;;;;;;;;;;;6.50;98.00;;;;;;5046590;28;20115;-67
2022/02/09 00:12:43;;;;;;;;;;;6.50;97.90;;;;;;5061789;28;19916;-66
2022/02/09 00:41:35;;;;;;;;;;;6.70;97.60;;;;;;5061292;28;20053;-66
2022/02/09 01:03:07;;;;;;;;;;;6.70;97.50;;;;;;5061444;28;20031;-66
2022/02/09 01:33:13;;;;;;;;;;;6.50;97.80;;;;;;5061110;28;19930;-66
2022/02/09 01:38:54;;;;;;;;;;;6.60;97.80;;;;;;5061397;28;19966;-66
2022/02/09 01:57:12;;;;;;;;;;;6.60;97.80;;;;;;5060710;28;19970;-65
2022/02/09 01:59:38;;;;;;;;;;;6.60;97.60;;;;;;5060709;28;19920;-65
2022/02/09 02:02:05;;;;;;;;;;;6.60;97.70;;;;;;5042597;28;19940;-65
2022/02/09 02:04:30;;;;;;;;;;;6.60;97.70;;;;;;5042985;28;19910;-66
2022/02/09 02:06:56;;;;;;;;;;;6.60;97.70;;;;;;5042950;28;19931;-66
2022/02/09 02:09:24;;;;;;;;;;;6.60;97.70;;;;;;5064318;28;19908;-65
2022/02/09 02:11:56;;;;;;;;;;;6.60;97.70;;;;;;5064114;28;19909;-66
2022/02/09 02:17:00;;;;;;;;;;;6.60;97.80;;;;;;5064094;28;19912;-65
2022/02/09 02:19:35;;;;;;;;;;;6.60;97.80;;;;;;5064260;28;19916;-66
2022/02/09 02:22:31;;;;;;;;;;;6.60;97.70;;;;;;5063511;28;19909;-65
2022/02/09 02:30:12;;;;;;;;;;;6.70;97.70;;;;;;5063905;28;19913;-66
2022/02/09 02:32:59;;;;;;;;;;;6.60;97.80;;;;;;5047104;28;20142;-66
2022/02/09 02:58:36;;;;;;;;;;;6.60;98.10;;;;;;5063306;28;20249;-67
2022/02/09 03:16:11;;;;;;;;;;;6.50;98.20;;;;;;5014328;28;20270;-67
2022/02/09 03:42:47;;;;;;;;;;;6.50;98.00;;;;;;5062442;28;19962;-67
2022/02/09 03:56:23;;;;;;;;;;;6.40;98.10;;;;;;5062417;28;20235;-67
2022/02/09 03:58:46;;;;;;;;;;;6.50;98.10;;;;;;5061986;28;19909;-68
2022/02/09 04:01:12;;;;;;;;;;;6.50;98.10;;;;;;5062164;28;20096;-67
2022/02/09 04:03:38;;;;;;;;;;;6.50;97.90;;;;;;5062037;28;20251;-67
2022/02/09 04:06:04;;;;;;;;;;;6.40;98.10;;;;;;5062138;28;20062;-66
2022/02/09 04:08:34;;;;;;;;;;;6.40;98.20;;;;;;5062081;28;19939;-66
2022/02/09 04:11:28;;;;;;;;;;;6.40;98.20;;;;;;5061766;28;19987;-66
2022/02/09 04:14:07;;;;;;;;;;;6.40;98.20;;;;;;5061450;28;19959;-66
2022/02/09 04:16:44;;;;;;;;;;;6.40;98.20;;;;;;5061850;28;19916;-66
2022/02/09 04:40:58;;;;;;;;;;;6.40;97.90;;;;;;5061532;28;20125;-67
2022/02/09 04:46:03;;;;;;;;;;;6.40;97.80;;;;;;5061389;28;19908;-67
2022/02/09 04:56:09;;;;;;;;;;;6.50;97.50;;;;;;5060342;28;20195;-67
2022/02/09 05:01:37;;;;;;;;;;;6.40;97.40;;;;;;5043716;28;19908;-66
2022/02/09 05:04:13;;;;;;;;;;;6.50;97.40;;;;;;5061260;28;20082;-66
2022/02/09 05:23:05;;;;;;;;;;;6.40;97.10;;;;;;5060818;28;19916;-66
2022/02/09 05:28:10;;;;;;;;;;;6.40;97.00;;;;;;5060968;28;20119;-67
2022/02/09 05:30:35;;;;;;;;;;;6.40;97.00;;;;;;5060554;28;19909;-66
2022/02/09 05:33:01;;;;;;;;;;;6.40;97.00;;;;;;5059446;28;20234;-65
2022/02/09 05:35:27;;;;;;;;;;;6.40;97.00;;;;;;5060608;28;19916;-65
2022/02/09 05:37:54;;;;;;;;;;;6.50;96.90;;;;;;5060546;28;19913;-66
2022/02/09 05:40:20;;;;;;;;;;;6.50;96.70;;;;;;5060684;28;19916;-66
2022/02/09 05:42:46;;;;;;;;;;;6.40;96.80;;;;;;5062489;28;19979;-66
2022/02/09 05:45:13;;;;;;;;;;;6.50;96.70;;;;;;5030401;28;19917;-66
2022/02/09 05:50:37;;;;;;;;;;;6.50;96.40;;;;;;5024819;28;19916;-65
2022/02/09 05:58:13;;;;;;;;;;;6.50;96.50;;;;;;5024710;28;20185;-65
2022/02/09 06:00:47;;;;;;;;;;;6.50;96.40;;;;;;5024385;28;20351;-65
2022/02/09 06:03:16;;;;;;;;;;;6.50;96.30;;;;;;5056868;28;19909;-65
2022/02/09 06:05:42;;;;;;;;;;;6.50;96.30;;;;;;5046364;28;19975;-65
2022/02/09 06:08:07;;;;;;;;;;;6.50;96.30;;;;;;5040974;28;19940;-66
2022/02/09 06:10:35;;;;;;;;;;;6.60;96.10;;;;;;5043918;28;19980;-66
2022/02/09 06:21:26;;;;;;;;;;;6.60;95.70;;;;;;4987491;28;19909;-65
2022/02/09 06:23:52;;;;;;;;;;;6.60;95.60;;;;;;5043841;28;19909;-65
2022/02/09 06:26:18;;;;;;;;;;;6.60;95.60;;;;;;5043878;28;19935;-65
2022/02/09 06:28:47;;;;;;;;;;;6.60;95.40;;;;;;5044522;28;20388;-66
2022/02/09 06:31:13;;;;;;;;;;;6.60;95.60;;;;;;5026718;28;19932;-65
2022/02/09 06:33:39;;;;;;;;;;;6.60;95.40;;;;;;5020945;28;20212;-66
2022/02/09 06:36:08;;;;;;;;;;;6.50;95.50;;;;;;5027046;28;19916;-66
2022/02/09 06:38:38;;;;;;;;;;;6.60;95.40;;;;;;5043845;28;19975;-66
2022/02/09 06:41:08;;;;;;;;;;;6.60;95.40;;;;;;5043824;28;19917;-65
2022/02/09 06:43:33;;;;;;;;;;;6.60;95.40;;;;;;5043864;28;19919;-66
2022/02/09 06:46:01;;;;;;;;;;;6.60;94.90;;;;;;5043763;28;19918;-66
2022/02/09 06:48:28;;;;;;;;;;;6.60;94.80;;;;;;5046117;28;20245;-65
2022/02/09 06:50:57;;;;;;;;;;;6.60;94.80;;;;;;5063281;28;19923;-66
2022/02/09 06:56:01;;;;;;;;;;;6.60;94.70;;;;;;5063121;28;19979;-66
2022/02/09 07:01:00;;;;;;;;;;;6.70;94.40;;;;;;5063366;28;19912;-65
2022/02/09 07:03:26;;;;;;;;;;;6.70;94.50;;;;;;5063219;28;19980;-66
2022/02/09 07:05:52;;;;;;;;;;;6.70;94.30;;;;;;5063100;28;19916;-66
2022/02/09 07:08:18;;;;;;;;;;;6.80;94.30;;;;;;5062804;28;19916;-66
2022/02/09 07:10:44;;;;;;;;;;;6.70;94.20;;;;;;5062775;28;19920;-66
2022/02/09 07:13:09;;;;;;;;;;;6.80;94.00;;;;;;5062900;28;19920;-66
2022/02/09 07:15:49;;;;;;;;;;;6.80;93.70;;;;;;5063054;28;19909;-65
2022/02/09 07:18:15;;;;;;;;;;;6.80;93.80;;;;;;5062513;28;19908;-66
2022/02/09 07:20:55;;;;;;;;;;;6.80;93.70;;;;;;5062523;28;19909;-65
2022/02/09 07:23:43;;;;;;;;;;;6.80;93.70;;;;;;5062849;28;19909;-67
2022/02/09 07:26:13;;;;;;;;;;;6.80;93.80;;;;;;5062772;28;20084;-66
2022/02/09 07:28:39;;;;;;;;;;;6.80;93.60;;;;;;5062519;28;19913;-67
2022/02/09 07:31:08;;;;;;;;;;;6.80;93.60;;;;;;5044657;28;19921;-65
2022/02/09 07:33:38;;;;;;;;;;;6.80;93.60;;;;;;5060985;28;19944;-65
2022/02/09 07:36:04;;;;;;;;;;;6.80;93.70;;;;;;5062224;28;19931;-66
2022/02/09 07:38:30;;;;;;;;;;;6.80;93.90;;;;;;5062596;28;19936;-65
2022/02/09 07:41:00;;;;;;;;;;;6.90;93.50;;;;;;5061901;28;19924;-66
2022/02/09 07:47:00;;;;;;;;;;;6.90;93.30;;;;;;5062621;28;19928;-65
2022/02/09 07:50:04;;;;;;;;;;;6.90;93.40;;;;;;5057870;28;19916;-66
2022/02/09 07:54:21;;;;;;;;;;;6.90;93.00;;;;;;5062147;28;19940;-66
2022/02/09 07:56:47;;;;;;;;;;;6.90;93.00;;;;;;5061979;28;19915;-66
2022/02/09 07:59:15;;;;;;;;;;;6.90;93.10;;;;;;5060843;28;19908;-66
2022/02/09 08:01:41;;;;;;;;;;;6.90;92.90;;;;;;5044060;28;19909;-66
2022/02/09 08:04:07;;;;;;;;;;;7.00;92.70;;;;;;5061714;28;20139;-66
2022/02/09 08:06:33;;;;;;;;;;;7.00;92.70;;;;;;5061499;28;19917;-66
2022/02/09 08:09:04;;;;;;;;;;;7.00;92.80;;;;;;5061955;28;20008;-67
2022/02/09 08:11:40;;;;;;;;;;;7.10;92.70;;;;;;5061686;28;19917;-67
2022/02/09 08:29:47;;;;;;;;;;;7.20;92.70;;;;;;5061450;28;20065;-68
2022/02/09 08:34:56;;;;;;;;;;;7.30;92.70;;;;;;5046487;28;19919;-67
2022/02/09 08:37:22;;;;;;;;;;;7.40;91.90;;;;;;5043607;28;19948;-67
2022/02/09 08:39:49;;;;;;;;;;;7.40;91.80;;;;;;5042480;28;20060;-67
2022/02/09 08:42:16;;;;;;;;;;;7.40;91.90;;;;;;5061252;28;20247;-67
2022/02/09 08:44:41;;;;;;;;;;;7.40;92.20;;;;;;5043881;28;19909;-67
2022/02/09 08:47:07;;;;;;;;;;;7.50;92.00;;;;;;5043548;28;20266;-67
2022/02/09 08:49:33;;;;;;;;;;;7.50;91.80;;;;;;5061506;28;19909;-67
2022/02/09 08:51:59;;;;;;;;;;;7.50;91.70;;;;;;5061146;28;20341;-67
2022/02/09 08:54:25;;;;;;;;;;;7.60;92.00;;;;;;5043209;28;20195;-67
2022/02/09 08:56:53;;;;;;;;;;;7.50;91.80;;;;;;5051983;28;19909;-67
2022/02/09 08:59:24;;;;;;;;;;;7.70;91.70;;;;;;5041530;28;19940;-67
2022/02/09 09:01:55;;;;;;;;;;;7.70;91.50;;;;;;5024126;28;20258;-66
2022/02/09 09:04:25;;;;;;;;;;;7.80;91.50;;;;;;5041210;28;19967;-67
2022/02/09 09:06:56;;;;;;;;;;;8.00;91.50;;;;;;5024011;28;19913;-67
2022/02/09 10:34:05;;;;;;;;;;;9.40;86.30;;;;;;5046795;28;19927;-67
2022/02/09 10:37:00;;;;;;;;;;;9.30;86.80;;;;;;5045752;28;19909;-67
2022/02/09 10:40:09;;;;;;;;;;;9.20;85.50;;;;;;5063873;28;19976;-67
2022/02/09 10:42:31;;;;;;;;;;;9.20;86.40;;;;;;5060876;28;19944;-67
2022/02/09 10:45:05;;;;;;;;;;;9.20;85.80;;;;;;5031995;28;19912;-67
2022/02/09 10:47:34;;;;;;;;;;;9.20;85.50;;;;;;5047115;28;19970;-67
2022/02/09 10:52:52;;;;;;;;;;;9.30;86.20;;;;;;5063496;28;19940;-67
2022/02/09 10:55:38;;;;;;;;;;;9.20;86.80;;;;;;5045651;28;20132;-67
2022/02/09 10:58:17;;;;;;;;;;;9.30;86.70;;;;;;5063464;28;20000;-67
2022/02/09 11:00:44;;;;;;;;;;;9.20;86.10;;;;;;5061930;28;19954;-67
2022/02/09 11:03:17;;;;;;;;;;;9.20;86.40;;;;;;5045568;28;19908;-66
2022/02/09 11:05:46;;;;;;;;;;;9.10;86.90;;;;;;5063452;28;20408;-66
2022/02/09 11:08:12;;;;;;;;;;;9.10;87.10;;;;;;5063181;28;20031;-66
2022/02/09 11:10:38;;;;;;;;;;;9.20;87.10;;;;;;5063072;28;19980;-67
2022/02/09 11:13:09;;;;;;;;;;;9.30;87.30;;;;;;5063091;28;19924;-66
2022/02/09 11:15:36;;;;;;;;;;;9.30;86.80;;;;;;5062895;28;20146;-66
2022/02/09 11:18:01;;;;;;;;;;;9.30;87.20;;;;;;5028765;28;19947;-66
2022/02/09 11:20:30;;;;;;;;;;;9.30;86.90;;;;;;5044952;28;19917;-65
2022/02/09 11:22:56;;;;;;;;;;;9.30;87.00;;;;;;5062527;28;19908;-66
2022/02/09 11:25:32;;;;;;;;;;;9.30;86.90;;;;;;5045092;28;20057;-67
2022/02/09 11:28:22;;;;;;;;;;;9.40;87.10;;;;;;5046049;28;19983;-66
2022/02/09 11:31:26;;;;;;;;;;;9.50;86.70;;;;;;5062162;28;19932;-66
2022/02/09 11:33:54;;;;;;;;;;;9.50;86.30;;;;;;5061566;28;20100;-66
2022/02/09 11:38:51;;;;;;;;;;;9.60;86.70;;;;;;5044648;28;19995;-67
2022/02/09 11:41:21;;;;;;;;;;;9.60;87.20;;;;;;5061394;28;19938;-66
2022/02/09 11:44:21;;;;;;;;;;;9.70;87.00;;;;;;5062319;28;19979;-66
2022/02/09 11:47:00;;;;;;;;;;;9.70;86.90;;;;;;5050858;28;20145;-66
2022/02/09 12:10:49;;;;;;;;;;;10.60;82.90;;;;;;5061705;28;19970;-66
2022/02/09 12:13:59;;;;;;;;;;;12.00;78.40;;;;;;5061881;28;19908;-66
2022/02/09 12:16:50;;;;;;;;;;;12.50;74.00;;;;;;5062083;28;19939;-66
2022/02/09 12:22:23;;;;;;;;;;;12.60;73.30;;;;;;5038463;28;19923;-65
2022/02/09 12:24:54;;;;;;;;;;;13.30;74.30;;;;;;5062095;28;20241;-66
2022/02/09 12:27:21;;;;;;;;;;;13.80;70.80;;;;;;5044023;28;19992;-66
2022/02/09 12:29:47;;;;;;;;;;;13.60;68.20;;;;;;5061264;28;19913;-68
2022/02/09 12:32:16;;;;;;;;;;;13.60;68.90;;;;;;5061421;28;19939;-66
2022/02/09 12:34:44;;;;;;;;;;;14.20;64.10;;;;;;5060160;28;19921;-67
2022/02/09 12:37:14;;;;;;;;;;;15.40;60.20;;;;;;5061545;28;20088;-67
2022/02/09 12:39:52;;;;;;;;;;;17.90;52.90;;;;;;5061741;28;20057;-67
2022/02/09 12:42:19;;;;;;;;;;;19.50;47.80;;;;;;5060113;28;19948;-68
2022/02/09 12:45:00;;;;;;;;;;;20.60;45.00;;;;;;5061285;28;19917;-67
2022/02/09 12:47:34;;;;;;;;;;;20.90;42.60;;;;;;5061481;28;20150;-67
2022/02/09 12:50:11;;;;;;;;;;;20.30;43.50;;;;;;5061631;28;19916;-66
2022/02/09 12:52:38;;;;;;;;;;;19.40;44.30;;;;;;5061303;28;19912;-67
2022/02/09 12:55:13;;;;;;;;;;;19.50;44.30;;;;;;5043666;28;20151;-67
2022/02/09 12:57:43;;;;;;;;;;;19.80;44.60;;;;;;5059372;28;20208;-68
2022/02/09 13:00:21;;;;;;;;;;;20.60;42.90;;;;;;5061394;28;19917;-68
2022/02/09 13:02:46;;;;;;;;;;;22.00;41.10;;;;;;5061129;28;19917;-68
2022/02/09 13:05:13;;;;;;;;;;;24.50;36.30;;;;;;5061216;28;19946;-67
2022/02/09 13:07:38;;;;;;;;;;;25.80;34.30;;;;;;5060702;28;19917;-67
2022/02/09 13:10:05;;;;;;;;;;;26.40;33.30;;;;;;5043264;28;19979;-67
2022/02/09 13:12:31;;;;;;;;;;;28.20;31.70;;;;;;5042953;28;20188;-68
2022/02/09 13:15:11;;;;;;;;;;;29.00;29.90;;;;;;5061076;28;19920;-68
2022/02/09 14:05:53;;;;;;;;;;;24.10;33.70;;;;;;5048495;28;20209;-67
2022/02/09 14:35:36;;;;;;;;;;;13.80;62.70;;;;;;5044239;28;19981;-67
2022/02/09 14:56:41;;;;;;;;;;;11.80;75.60;;;;;;5044033;28;19933;-66
2022/02/09 14:59:09;;;;;;;;;;;11.80;76.80;;;;;;5043812;28;19972;-67
2022/02/09 15:01:50;;;;;;;;;;;11.70;77.20;;;;;;5043422;28;19916;-66
2022/02/09 15:11:52;;;;;;;;;;;11.50;78.60;;;;;;5042881;28;19909;-66
2022/02/09 15:14:29;;;;;;;;;;;11.40;78.70;;;;;;5027269;28;20211;-67
2022/02/09 15:17:49;;;;;;;;;;;11.30;79.40;;;;;;5043109;28;19955;-66
2022/02/09 15:20:11;;;;;;;;;;;11.30;79.10;;;;;;5038832;28;19909;-66
2022/02/09 15:22:37;;;;;;;;;;;11.30;79.70;;;;;;5042292;28;19909;-67
2022/02/09 15:25:10;;;;;;;;;;;11.20;79.40;;;;;;5043176;28;19909;-67
2022/02/09 15:27:36;;;;;;;;;;;11.20;80.60;;;;;;5010967;28;19948;-67
2022/02/09 15:30:02;;;;;;;;;;;11.20;80.80;;;;;;5042937;28;19916;-66
2022/02/09 15:32:34;;;;;;;;;;;11.20;80.70;;;;;;5042632;28;19909;-67
2022/02/09 15:35:07;;;;;;;;;;;11.10;80.90;;;;;;5042832;28;19929;-66
2022/02/09 15:37:46;;;;;;;;;;;11.10;81.20;;;;;;5062598;28;19936;-66
2022/02/09 15:40:32;;;;;;;;;;;11.10;81.30;;;;;;5062040;28;20461;-65
2022/02/09 15:57:09;;;;;;;;;;;10.70;82.90;;;;;;5062190;28;19915;-65
2022/02/09 15:59:55;;;;;;;;;;;10.60;83.50;;;;;;5062332;28;20091;-67
2022/02/09 16:24:14;;;;;;;;;;;10.00;85.80;;;;;;5046800;28;19930;-66
2022/02/09 16:45:28;;;;;;;;;;;9.40;89.20;;;;;;5061442;28;19923;-66
2022/02/09 16:50:25;;;;;;;;;;;9.20;89.60;;;;;;5061400;28;19979;-67
2022/02/09 16:53:04;;;;;;;;;;;9.20;89.50;;;;;;5044288;28;20124;-66
2022/02/09 16:55:56;;;;;;;;;;;9.10;89.90;;;;;;5061314;28;20024;-66
2022/02/09 17:19:41;;;;;;;;;;;8.60;91.70;;;;;;5061223;28;20178;-67
2022/02/09 17:22:08;;;;;;;;;;;8.50;91.80;;;;;;5060943;28;19908;-66
2022/02/09 17:24:34;;;;;;;;;;;8.40;92.00;;;;;;5034369;28;19928;-67
2022/02/09 17:27:00;;;;;;;;;;;8.40;92.30;;;;;;5040962;28;19916;-66
2022/02/09 17:29:39;;;;;;;;;;;8.30;92.30;;;;;;5056528;28;19948;-67
2022/02/09 17:32:21;;;;;;;;;;;8.30;92.40;;;;;;5040845;28;20180;-67
2022/02/09 17:35:13;;;;;;;;;;;8.20;92.70;;;;;;5041032;28;19913;-67
2022/02/09 17:54:29;;;;;;;;;;;7.60;93.60;;;;;;5043315;28;19992;-69
2022/02/09 17:56:53;;;;;;;;;;;7.60;93.80;;;;;;5044376;28;19996;-69
2022/02/09 17:59:23;;;;;;;;;;;7.50;94.10;;;;;;5041560;28;20042;-68
2022/02/09 18:01:50;;;;;;;;;;;7.40;94.30;;;;;;5044395;28;19963;-68
2022/02/09 18:04:19;;;;;;;;;;;7.40;94.60;;;;;;5031260;28;19944;-69
2022/02/09 18:09:49;;;;;;;;;;;7.20;94.60;;;;;;5042604;28;19925;-70
2022/02/09 18:12:46;;;;;;;;;;;7.10;94.70;;;;;;5064227;28;19908;-70
2022/02/09 18:31:09;;;;;;;;;;;6.80;95.50;;;;;;5062579;28;20131;-70
2022/02/09 18:44:19;;;;;;;;;;;6.40;95.80;;;;;;5062438;28;19917;-69
2022/02/09 18:59:21;;;;;;;;;;;6.20;96.60;;;;;;5020418;28;19928;-69
2022/02/09 19:05:55;;;;;;;;;;;6.00;96.50;;;;;;5060227;28;20168;-68
2022/02/09 19:14:12;;;;;;;;;;;5.90;96.60;;;;;;5040914;28;19955;-68
2022/02/09 19:28:02;;;;;;;;;;;5.70;96.90;;;;;;5040898;28;20253;-69
2022/02/09 19:30:58;;;;;;;;;;;5.60;96.90;;;;;;5042196;28;19909;-68
2022/02/09 19:33:25;;;;;;;;;;;5.60;96.90;;;;;;5037715;28;19980;-68
2022/02/09 19:56:31;;;;;;;;;;;5.20;98.00;;;;;;5033070;28;19928;-67
2022/02/09 19:59:04;;;;;;;;;;;5.20;98.00;;;;;;5041646;28;19991;-68
2022/02/09 20:01:35;;;;;;;;;;;5.10;98.10;;;;;;5041221;28;19944;-68
2022/02/09 20:04:02;;;;;;;;;;;5.10;98.20;;;;;;5043116;28;19908;-68
2022/02/09 20:06:28;;;;;;;;;;;5.00;98.10;;;;;;5025154;28;19912;-68
2022/02/09 20:08:54;;;;;;;;;;;4.90;98.20;;;;;;5008265;28;19959;-66
2022/02/09 20:11:20;;;;;;;;;;;4.90;98.60;;;;;;5018820;28;19921;-68
2022/02/09 20:13:50;;;;;;;;;;;4.90;98.70;;;;;;4991700;28;19918;-68
2022/02/09 20:16:19;;;;;;;;;;;4.90;98.60;;;;;;5033232;28;20011;-69
2022/02/09 20:18:48;;;;;;;;;;;4.90;98.40;;;;;;5024424;28;19925;-68
2022/02/09 20:21:14;;;;;;;;;;;4.90;98.40;;;;;;5040729;28;20159;-66
2022/02/09 20:23:40;;;;;;;;;;;4.90;98.30;;;;;;5024738;28;19909;-68
2022/02/09 20:26:09;;;;;;;;;;;4.80;98.30;;;;;;5024354;28;19978;-68
2022/02/09 20:28:37;;;;;;;;;;;4.80;98.30;;;;;;5041663;28;19925;-67
2022/02/09 20:31:08;;;;;;;;;;;4.80;98.30;;;;;;5023849;28;19932;-68
2022/02/09 20:33:42;;;;;;;;;;;4.70;98.20;;;;;;5041828;28;19975;-68
2022/02/09 20:36:11;;;;;;;;;;;4.60;98.30;;;;;;5039435;28;20131;-68
2022/02/09 20:38:38;;;;;;;;;;;4.50;98.40;;;;;;5040141;28;19913;-68
2022/02/09 20:41:07;;;;;;;;;;;4.50;98.40;;;;;;5053987;28;20017;-68
2022/02/09 20:43:40;;;;;;;;;;;4.50;98.30;;;;;;5018226;28;19920;-68
2022/02/09 20:46:07;;;;;;;;;;;4.40;98.40;;;;;;5014316;28;19931;-68
2022/02/09 20:48:33;;;;;;;;;;;4.40;98.40;;;;;;5040967;28;20215;-67
2022/02/09 20:51:01;;;;;;;;;;;4.30;98.60;;;;;;5031347;28;19952;-68
2022/02/09 20:53:27;;;;;;;;;;;4.30;98.60;;;;;;5040707;28;20196;-68
2022/02/09 20:55:52;;;;;;;;;;;4.30;98.60;;;;;;5040983;28;19920;-68
2022/02/09 20:58:24;;;;;;;;;;;4.20;98.70;;;;;;5040974;28;19917;-70
2022/02/09 21:01:04;;;;;;;;;;;4.20;98.70;;;;;;5000538;28;19917;-68
2022/02/09 21:54:21;;;;;;;;;;;3.90;99.50;;;;;;5040548;28;19972;-67
2022/02/09 22:21:16;;;;;;;;;;;3.40;98.60;;;;;;5021076;28;19924;-67
2022/02/09 22:28:29;;;;;;;;;;;3.20;98.90;;;;;;5024714;28;19916;-67
2022/02/09 22:56:53;;;;;;;;;;;3.00;99.20;;;;;;5043501;28;20096;-68
2022/02/09 22:59:46;;;;;;;;;;;3.00;99.20;;;;;;5043594;28;19924;-67
2022/02/09 23:02:14;;;;;;;;;;;3.00;99.20;;;;;;5042844;28;19927;-67
2022/02/09 23:05:52;;;;;;;;;;;2.90;99.30;;;;;;5043439;28;19972;-67
2022/02/09 23:07:53;;;;;;;;;;;2.90;99.40;;;;;;5034265;28;19920;-68
2022/02/09 23:11:05;;;;;;;;;;;2.90;99.30;;;;;;5028072;28;19958;-68
2022/02/09 23:13:17;;;;;;;;;;;2.80;99.40;;;;;;5028350;28;19909;-68
2022/02/09 23:15:59;;;;;;;;;;;2.80;99.40;;;;;;5027785;28;19940;-68
